sensor_id;sensor_type;location;lat;lon;timestamp;P1;durP1;ratioP1;P2;durP2;ratioP2
48627;SDS011;34424;52.234;6.500;2023-05-07T00:02:42;44.10;;;33.15;;
48627;SDS011;34424;52.234;6.500;2023-05-07T00:07:46;40.70;;;31.55;;
48627;SDS011;34424;52.234;6.500;2023-05-07T00:17:53;42.47;;;33.53;;
48627;SDS011;34424;52.234;6.500;2023-05-07T00:22:58;45.22;;;35.03;;
48627;SDS011;34424;52.234;6.500;2023-05-07T00:28:02;42.47;;;32.45;;
48627;SDS011;34424;52.234;6.500;2023-05-07T00:33:05;45.85;;;36.65;;
48627;SDS011;34424;52.234;6.500;2023-05-07T00:38:08;44.30;;;32.80;;
48627;SDS011;34424;52.234;6.500;2023-05-07T00:43:12;45.90;;;36.35;;
48627;SDS011;34424;52.234;6.500;2023-05-07T00:48:15;41.33;;;33.72;;
48627;SDS011;34424;52.234;6.500;2023-05-07T00:53:18;44.92;;;36.17;;
48627;SDS011;34424;52.234;6.500;2023-05-07T00:58:22;46.30;;;35.10;;
48627;SDS011;34424;52.234;6.500;2023-05-07T01:03:26;45.20;;;35.85;;
48627;SDS011;34424;52.234;6.500;2023-05-07T01:13:33;46.60;;;37.25;;
48627;SDS011;34424;52.234;6.500;2023-05-07T01:18:37;48.60;;;35.75;;
48627;SDS011;34424;52.234;6.500;2023-05-07T01:23:41;42.47;;;33.30;;
48627;SDS011;34424;52.234;6.500;2023-05-07T01:28:44;44.53;;;34.00;;
48627;SDS011;34424;52.234;6.500;2023-05-07T01:33:47;44.10;;;34.33;;
48627;SDS011;34424;52.234;6.500;2023-05-07T01:38:53;40.03;;;30.00;;
48627;SDS011;34424;52.234;6.500;2023-05-07T01:43:59;37.05;;;29.67;;
48627;SDS011;34424;52.234;6.500;2023-05-07T01:49:03;38.10;;;29.60;;
48627;SDS011;34424;52.234;6.500;2023-05-07T01:54:07;40.63;;;31.52;;
48627;SDS011;34424;52.234;6.500;2023-05-07T01:59:10;38.20;;;30.98;;
48627;SDS011;34424;52.234;6.500;2023-05-07T02:04:14;39.28;;;31.77;;
48627;SDS011;34424;52.234;6.500;2023-05-07T02:09:18;40.63;;;31.50;;
48627;SDS011;34424;52.234;6.500;2023-05-07T02:14:21;41.10;;;32.95;;
48627;SDS011;34424;52.234;6.500;2023-05-07T02:19:24;43.13;;;33.03;;
48627;SDS011;34424;52.234;6.500;2023-05-07T02:24:28;43.90;;;33.60;;
48627;SDS011;34424;52.234;6.500;2023-05-07T02:29:31;45.03;;;33.55;;
48627;SDS011;34424;52.234;6.500;2023-05-07T02:34:34;48.28;;;32.95;;
48627;SDS011;34424;52.234;6.500;2023-05-07T02:39:38;45.10;;;34.50;;
48627;SDS011;34424;52.234;6.500;2023-05-07T02:44:40;41.25;;;32.53;;
48627;SDS011;34424;52.234;6.500;2023-05-07T02:49:43;45.80;;;34.65;;
48627;SDS011;34424;52.234;6.500;2023-05-07T02:54:47;41.63;;;29.67;;
48627;SDS011;34424;52.234;6.500;2023-05-07T02:59:50;44.30;;;31.75;;
48627;SDS011;34424;52.234;6.500;2023-05-07T03:04:53;38.47;;;29.48;;
48627;SDS011;34424;52.234;6.500;2023-05-07T03:09:57;41.17;;;29.53;;
48627;SDS011;34424;52.234;6.500;2023-05-07T03:14:59;39.22;;;27.13;;
48627;SDS011;34424;52.234;6.500;2023-05-07T03:20:02;45.17;;;28.87;;
48627;SDS011;34424;52.234;6.500;2023-05-07T03:25:08;42.15;;;28.27;;
48627;SDS011;34424;52.234;6.500;2023-05-07T03:30:12;42.60;;;27.52;;
48627;SDS011;34424;52.234;6.500;2023-05-07T03:35:15;37.10;;;25.98;;
48627;SDS011;34424;52.234;6.500;2023-05-07T03:40:19;42.73;;;28.03;;
48627;SDS011;34424;52.234;6.500;2023-05-07T03:45:22;43.85;;;27.15;;
48627;SDS011;34424;52.234;6.500;2023-05-07T03:50:24;42.80;;;28.90;;
48627;SDS011;34424;52.234;6.500;2023-05-07T03:55:28;44.37;;;30.27;;
48627;SDS011;34424;52.234;6.500;2023-05-07T04:00:31;43.65;;;30.48;;
48627;SDS011;34424;52.234;6.500;2023-05-07T04:05:35;54.38;;;32.35;;
48627;SDS011;34424;52.234;6.500;2023-05-07T04:10:39;44.77;;;31.17;;
48627;SDS011;34424;52.234;6.500;2023-05-07T04:15:41;45.30;;;30.63;;
48627;SDS011;34424;52.234;6.500;2023-05-07T04:20:44;50.87;;;32.23;;
48627;SDS011;34424;52.234;6.500;2023-05-07T04:25:48;48.60;;;30.90;;
48627;SDS011;34424;52.234;6.500;2023-05-07T04:30:51;46.00;;;31.15;;
48627;SDS011;34424;52.234;6.500;2023-05-07T04:35:53;48.07;;;30.77;;
48627;SDS011;34424;52.234;6.500;2023-05-07T04:41:02;42.28;;;30.08;;
48627;SDS011;34424;52.234;6.500;2023-05-07T04:46:06;41.53;;;28.30;;
48627;SDS011;34424;52.234;6.500;2023-05-07T04:51:09;41.47;;;29.23;;
48627;SDS011;34424;52.234;6.500;2023-05-07T04:56:13;40.38;;;26.90;;
48627;SDS011;34424;52.234;6.500;2023-05-07T05:01:16;40.97;;;27.92;;
48627;SDS011;34424;52.234;6.500;2023-05-07T05:06:18;34.92;;;27.10;;
48627;SDS011;34424;52.234;6.500;2023-05-07T05:11:23;38.38;;;27.38;;
48627;SDS011;34424;52.234;6.500;2023-05-07T05:16:25;36.17;;;25.90;;
48627;SDS011;34424;52.234;6.500;2023-05-07T05:21:28;33.85;;;25.60;;
48627;SDS011;34424;52.234;6.500;2023-05-07T05:26:32;35.57;;;24.40;;
48627;SDS011;34424;52.234;6.500;2023-05-07T05:31:35;34.53;;;23.98;;
48627;SDS011;34424;52.234;6.500;2023-05-07T05:36:37;31.88;;;23.85;;
48627;SDS011;34424;52.234;6.500;2023-05-07T05:41:41;33.33;;;25.23;;
48627;SDS011;34424;52.234;6.500;2023-05-07T05:46:44;32.70;;;23.73;;
48627;SDS011;34424;52.234;6.500;2023-05-07T05:51:47;33.67;;;22.30;;
48627;SDS011;34424;52.234;6.500;2023-05-07T05:56:51;29.23;;;21.43;;
48627;SDS011;34424;52.234;6.500;2023-05-07T06:01:53;31.17;;;23.52;;
48627;SDS011;34424;52.234;6.500;2023-05-07T06:06:56;31.23;;;21.52;;
48627;SDS011;34424;52.234;6.500;2023-05-07T06:12:00;33.88;;;22.73;;
48627;SDS011;34424;52.234;6.500;2023-05-07T06:17:03;29.13;;;21.70;;
48627;SDS011;34424;52.234;6.500;2023-05-07T06:22:06;28.58;;;21.38;;
48627;SDS011;34424;52.234;6.500;2023-05-07T06:27:10;29.10;;;20.95;;
48627;SDS011;34424;52.234;6.500;2023-05-07T06:32:13;28.17;;;22.30;;
48627;SDS011;34424;52.234;6.500;2023-05-07T06:37:16;28.33;;;22.15;;
48627;SDS011;34424;52.234;6.500;2023-05-07T06:42:20;29.80;;;22.63;;
48627;SDS011;34424;52.234;6.500;2023-05-07T06:47:23;28.88;;;22.77;;
48627;SDS011;34424;52.234;6.500;2023-05-07T06:52:26;28.15;;;21.50;;
48627;SDS011;34424;52.234;6.500;2023-05-07T06:57:31;31.52;;;22.38;;
48627;SDS011;34424;52.234;6.500;2023-05-07T07:02:34;31.98;;;23.23;;
48627;SDS011;34424;52.234;6.500;2023-05-07T07:07:36;35.17;;;23.77;;
48627;SDS011;34424;52.234;6.500;2023-05-07T07:12:41;31.83;;;22.45;;
48627;SDS011;34424;52.234;6.500;2023-05-07T07:17:45;29.77;;;21.77;;
48627;SDS011;34424;52.234;6.500;2023-05-07T07:22:47;30.35;;;23.40;;
48627;SDS011;34424;52.234;6.500;2023-05-07T07:27:51;28.63;;;23.67;;
48627;SDS011;34424;52.234;6.500;2023-05-07T07:32:54;28.15;;;20.10;;
48627;SDS011;34424;52.234;6.500;2023-05-07T07:38:01;28.33;;;20.02;;
48627;SDS011;34424;52.234;6.500;2023-05-07T07:43:05;24.80;;;19.42;;
48627;SDS011;34424;52.234;6.500;2023-05-07T07:48:08;25.20;;;19.30;;
48627;SDS011;34424;52.234;6.500;2023-05-07T07:53:11;20.98;;;17.58;;
48627;SDS011;34424;52.234;6.500;2023-05-07T07:58:15;23.95;;;18.25;;
48627;SDS011;34424;52.234;6.500;2023-05-07T08:03:17;19.52;;;16.80;;
48627;SDS011;34424;52.234;6.500;2023-05-07T08:08:21;23.70;;;16.73;;
48627;SDS011;34424;52.234;6.500;2023-05-07T08:13:25;21.40;;;16.67;;
48627;SDS011;34424;52.234;6.500;2023-05-07T08:18:27;19.40;;;16.60;;
48627;SDS011;34424;52.234;6.500;2023-05-07T08:23:30;19.63;;;15.75;;
48627;SDS011;34424;52.234;6.500;2023-05-07T08:28:34;19.23;;;16.95;;
48627;SDS011;34424;52.234;6.500;2023-05-07T08:33:37;18.92;;;16.17;;
48627;SDS011;34424;52.234;6.500;2023-05-07T08:43:46;22.25;;;17.35;;
48627;SDS011;34424;52.234;6.500;2023-05-07T08:48:51;24.35;;;17.80;;
48627;SDS011;34424;52.234;6.500;2023-05-07T08:53:54;25.98;;;18.92;;
48627;SDS011;34424;52.234;6.500;2023-05-07T08:58:58;21.88;;;17.60;;
48627;SDS011;34424;52.234;6.500;2023-05-07T09:04:01;20.73;;;17.67;;
48627;SDS011;34424;52.234;6.500;2023-05-07T09:09:04;22.15;;;18.05;;
48627;SDS011;34424;52.234;6.500;2023-05-07T09:14:08;21.13;;;17.50;;
48627;SDS011;34424;52.234;6.500;2023-05-07T09:19:10;22.80;;;17.30;;
48627;SDS011;34424;52.234;6.500;2023-05-07T09:24:14;24.63;;;18.95;;
48627;SDS011;34424;52.234;6.500;2023-05-07T09:29:19;30.48;;;18.00;;
48627;SDS011;34424;52.234;6.500;2023-05-07T09:34:22;21.40;;;17.58;;
48627;SDS011;34424;52.234;6.500;2023-05-07T09:39:25;18.92;;;16.25;;
48627;SDS011;34424;52.234;6.500;2023-05-07T09:49:34;17.58;;;15.57;;
48627;SDS011;34424;52.234;6.500;2023-05-07T09:54:37;18.23;;;15.77;;
48627;SDS011;34424;52.234;6.500;2023-05-07T09:59:43;19.77;;;16.55;;
48627;SDS011;34424;52.234;6.500;2023-05-07T10:04:45;19.17;;;17.13;;
48627;SDS011;34424;52.234;6.500;2023-05-07T10:09:49;16.92;;;13.70;;
48627;SDS011;34424;52.234;6.500;2023-05-07T10:14:54;17.08;;;14.63;;
48627;SDS011;34424;52.234;6.500;2023-05-07T10:19:58;16.17;;;13.52;;
48627;SDS011;34424;52.234;6.500;2023-05-07T10:25:04;14.95;;;13.35;;
48627;SDS011;34424;52.234;6.500;2023-05-07T10:30:16;17.33;;;13.90;;
48627;SDS011;34424;52.234;6.500;2023-05-07T10:35:29;15.07;;;13.38;;
48627;SDS011;34424;52.234;6.500;2023-05-07T10:40:34;15.77;;;13.48;;
48627;SDS011;34424;52.234;6.500;2023-05-07T10:45:38;13.15;;;11.82;;
48627;SDS011;34424;52.234;6.500;2023-05-07T10:50:41;18.70;;;14.70;;
48627;SDS011;34424;52.234;6.500;2023-05-07T10:55:45;14.77;;;13.20;;
48627;SDS011;34424;52.234;6.500;2023-05-07T11:00:56;16.30;;;14.60;;
48627;SDS011;34424;52.234;6.500;2023-05-07T11:06:08;16.58;;;13.43;;
48627;SDS011;34424;52.234;6.500;2023-05-07T11:11:13;15.40;;;13.52;;
48627;SDS011;34424;52.234;6.500;2023-05-07T11:16:19;15.35;;;13.73;;
48627;SDS011;34424;52.234;6.500;2023-05-07T11:21:33;17.58;;;14.00;;
48627;SDS011;34424;52.234;6.500;2023-05-07T11:26:42;14.80;;;13.35;;
48627;SDS011;34424;52.234;6.500;2023-05-07T11:31:51;13.80;;;12.40;;
48627;SDS011;34424;52.234;6.500;2023-05-07T11:36:55;13.93;;;12.00;;
48627;SDS011;34424;52.234;6.500;2023-05-07T11:41:59;15.88;;;14.27;;
48627;SDS011;34424;52.234;6.500;2023-05-07T11:47:04;14.88;;;12.80;;
48627;SDS011;34424;52.234;6.500;2023-05-07T11:52:09;14.27;;;12.68;;
48627;SDS011;34424;52.234;6.500;2023-05-07T11:57:14;14.98;;;13.38;;
48627;SDS011;34424;52.234;6.500;2023-05-07T12:02:18;16.02;;;14.43;;
48627;SDS011;34424;52.234;6.500;2023-05-07T12:07:21;15.73;;;13.43;;
48627;SDS011;34424;52.234;6.500;2023-05-07T12:12:23;12.65;;;11.32;;
48627;SDS011;34424;52.234;6.500;2023-05-07T12:17:29;15.40;;;13.80;;
48627;SDS011;34424;52.234;6.500;2023-05-07T12:22:32;15.85;;;13.27;;
48627;SDS011;34424;52.234;6.500;2023-05-07T12:27:36;14.65;;;13.15;;
48627;SDS011;34424;52.234;6.500;2023-05-07T12:32:41;13.82;;;11.85;;
48627;SDS011;34424;52.234;6.500;2023-05-07T12:37:54;17.92;;;13.60;;
48627;SDS011;34424;52.234;6.500;2023-05-07T12:42:58;14.32;;;11.90;;
48627;SDS011;34424;52.234;6.500;2023-05-07T12:48:02;12.25;;;10.95;;
48627;SDS011;34424;52.234;6.500;2023-05-07T12:53:06;12.50;;;10.93;;
48627;SDS011;34424;52.234;6.500;2023-05-07T12:58:15;14.40;;;12.85;;
48627;SDS011;34424;52.234;6.500;2023-05-07T13:03:23;14.52;;;11.88;;
48627;SDS011;34424;52.234;6.500;2023-05-07T13:08:29;14.10;;;12.63;;
48627;SDS011;34424;52.234;6.500;2023-05-07T13:13:33;13.73;;;12.23;;
48627;SDS011;34424;52.234;6.500;2023-05-07T13:18:39;12.40;;;10.98;;
48627;SDS011;34424;52.234;6.500;2023-05-07T13:23:45;13.27;;;11.55;;
48627;SDS011;34424;52.234;6.500;2023-05-07T13:28:47;12.07;;;10.88;;
48627;SDS011;34424;52.234;6.500;2023-05-07T13:33:52;11.25;;;9.88;;
48627;SDS011;34424;52.234;6.500;2023-05-07T13:38:55;12.27;;;10.93;;
48627;SDS011;34424;52.234;6.500;2023-05-07T13:43:57;13.15;;;10.95;;
48627;SDS011;34424;52.234;6.500;2023-05-07T13:49:01;11.68;;;10.52;;
48627;SDS011;34424;52.234;6.500;2023-05-07T13:54:04;10.70;;;8.65;;
48627;SDS011;34424;52.234;6.500;2023-05-07T13:59:07;12.05;;;10.07;;
48627;SDS011;34424;52.234;6.500;2023-05-07T14:04:11;10.32;;;8.93;;
48627;SDS011;34424;52.234;6.500;2023-05-07T14:09:14;10.38;;;8.63;;
48627;SDS011;34424;52.234;6.500;2023-05-07T14:14:16;14.38;;;9.00;;
48627;SDS011;34424;52.234;6.500;2023-05-07T14:19:20;12.07;;;10.70;;
48627;SDS011;34424;52.234;6.500;2023-05-07T14:24:25;15.15;;;11.80;;
48627;SDS011;34424;52.234;6.500;2023-05-07T14:29:38;10.40;;;8.82;;
48627;SDS011;34424;52.234;6.500;2023-05-07T14:34:42;10.13;;;8.80;;
48627;SDS011;34424;52.234;6.500;2023-05-07T14:39:45;12.70;;;10.68;;
48627;SDS011;34424;52.234;6.500;2023-05-07T14:44:51;15.55;;;11.52;;
48627;SDS011;34424;52.234;6.500;2023-05-07T14:49:55;12.27;;;10.90;;
48627;SDS011;34424;52.234;6.500;2023-05-07T14:54:59;10.57;;;9.10;;
48627;SDS011;34424;52.234;6.500;2023-05-07T15:00:03;10.73;;;8.52;;
48627;SDS011;34424;52.234;6.500;2023-05-07T15:05:08;12.90;;;11.35;;
48627;SDS011;34424;52.234;6.500;2023-05-07T15:10:11;14.25;;;11.63;;
48627;SDS011;34424;52.234;6.500;2023-05-07T15:15:14;13.48;;;10.65;;
48627;SDS011;34424;52.234;6.500;2023-05-07T15:20:18;10.85;;;8.27;;
48627;SDS011;34424;52.234;6.500;2023-05-07T15:25:21;12.85;;;9.98;;
48627;SDS011;34424;52.234;6.500;2023-05-07T15:30:24;15.27;;;11.00;;
48627;SDS011;34424;52.234;6.500;2023-05-07T15:35:28;12.23;;;9.65;;
48627;SDS011;34424;52.234;6.500;2023-05-07T15:40:31;11.45;;;9.30;;
48627;SDS011;34424;52.234;6.500;2023-05-07T15:45:38;11.30;;;9.25;;
48627;SDS011;34424;52.234;6.500;2023-05-07T15:50:42;11.93;;;10.57;;
48627;SDS011;34424;52.234;6.500;2023-05-07T15:55:45;13.32;;;10.60;;
48627;SDS011;34424;52.234;6.500;2023-05-07T16:00:49;13.10;;;11.57;;
48627;SDS011;34424;52.234;6.500;2023-05-07T16:05:54;13.23;;;11.23;;
48627;SDS011;34424;52.234;6.500;2023-05-07T16:10:58;11.43;;;10.23;;
48627;SDS011;34424;52.234;6.500;2023-05-07T16:16:01;13.55;;;11.38;;
48627;SDS011;34424;52.234;6.500;2023-05-07T16:21:05;13.48;;;12.07;;
48627;SDS011;34424;52.234;6.500;2023-05-07T16:26:08;16.17;;;12.48;;
48627;SDS011;34424;52.234;6.500;2023-05-07T16:31:12;17.80;;;11.75;;
48627;SDS011;34424;52.234;6.500;2023-05-07T16:36:16;15.48;;;13.40;;
48627;SDS011;34424;52.234;6.500;2023-05-07T16:41:19;17.30;;;12.70;;
48627;SDS011;34424;52.234;6.500;2023-05-07T16:46:22;14.98;;;12.85;;
48627;SDS011;34424;52.234;6.500;2023-05-07T16:56:29;18.58;;;13.85;;
48627;SDS011;34424;52.234;6.500;2023-05-07T17:01:32;19.00;;;15.38;;
48627;SDS011;34424;52.234;6.500;2023-05-07T17:06:36;17.67;;;15.10;;
48627;SDS011;34424;52.234;6.500;2023-05-07T17:11:39;19.15;;;15.48;;
48627;SDS011;34424;52.234;6.500;2023-05-07T17:16:42;20.95;;;15.45;;
48627;SDS011;34424;52.234;6.500;2023-05-07T17:21:46;17.73;;;15.52;;
48627;SDS011;34424;52.234;6.500;2023-05-07T17:26:49;20.55;;;15.60;;
48627;SDS011;34424;52.234;6.500;2023-05-07T17:31:51;21.13;;;16.23;;
48627;SDS011;34424;52.234;6.500;2023-05-07T17:36:55;19.85;;;15.73;;
48627;SDS011;34424;52.234;6.500;2023-05-07T17:41:58;21.63;;;16.75;;
48627;SDS011;34424;52.234;6.500;2023-05-07T17:47:01;20.65;;;16.40;;
48627;SDS011;34424;52.234;6.500;2023-05-07T17:52:06;20.85;;;16.60;;
48627;SDS011;34424;52.234;6.500;2023-05-07T17:57:09;24.23;;;16.15;;
48627;SDS011;34424;52.234;6.500;2023-05-07T18:02:12;23.52;;;17.45;;
48627;SDS011;34424;52.234;6.500;2023-05-07T18:07:16;26.90;;;20.33;;
48627;SDS011;34424;52.234;6.500;2023-05-07T18:12:20;23.38;;;18.10;;
48627;SDS011;34424;52.234;6.500;2023-05-07T18:17:24;26.27;;;19.58;;
48627;SDS011;34424;52.234;6.500;2023-05-07T18:22:29;22.90;;;18.23;;
48627;SDS011;34424;52.234;6.500;2023-05-07T18:27:32;24.55;;;18.92;;
48627;SDS011;34424;52.234;6.500;2023-05-07T18:32:34;32.53;;;20.90;;
48627;SDS011;34424;52.234;6.500;2023-05-07T18:37:39;32.70;;;21.05;;
48627;SDS011;34424;52.234;6.500;2023-05-07T18:42:41;24.00;;;18.30;;
48627;SDS011;34424;52.234;6.500;2023-05-07T18:47:45;28.38;;;19.52;;
48627;SDS011;34424;52.234;6.500;2023-05-07T18:52:50;26.02;;;19.10;;
48627;SDS011;34424;52.234;6.500;2023-05-07T18:57:52;28.17;;;19.25;;
48627;SDS011;34424;52.234;6.500;2023-05-07T19:02:55;29.23;;;21.45;;
48627;SDS011;34424;52.234;6.500;2023-05-07T19:07:59;33.78;;;24.65;;
48627;SDS011;34424;52.234;6.500;2023-05-07T19:13:02;39.13;;;26.98;;
48627;SDS011;34424;52.234;6.500;2023-05-07T19:18:06;34.33;;;24.90;;
48627;SDS011;34424;52.234;6.500;2023-05-07T19:23:10;34.42;;;23.83;;
48627;SDS011;34424;52.234;6.500;2023-05-07T19:28:13;33.40;;;23.92;;
48627;SDS011;34424;52.234;6.500;2023-05-07T19:33:16;31.83;;;23.50;;
48627;SDS011;34424;52.234;6.500;2023-05-07T19:38:20;26.90;;;20.42;;
48627;SDS011;34424;52.234;6.500;2023-05-07T19:43:22;29.55;;;20.92;;
48627;SDS011;34424;52.234;6.500;2023-05-07T19:48:25;30.80;;;21.90;;
48627;SDS011;34424;52.234;6.500;2023-05-07T19:53:29;29.30;;;21.92;;
48627;SDS011;34424;52.234;6.500;2023-05-07T19:58:32;27.42;;;20.85;;
48627;SDS011;34424;52.234;6.500;2023-05-07T20:08:40;29.00;;;20.73;;
48627;SDS011;34424;52.234;6.500;2023-05-07T20:13:45;30.02;;;20.98;;
48627;SDS011;34424;52.234;6.500;2023-05-07T20:18:47;27.05;;;19.23;;
48627;SDS011;34424;52.234;6.500;2023-05-07T20:23:51;26.35;;;19.50;;
48627;SDS011;34424;52.234;6.500;2023-05-07T20:28:54;23.67;;;19.08;;
48627;SDS011;34424;52.234;6.500;2023-05-07T20:33:57;28.38;;;17.80;;
48627;SDS011;34424;52.234;6.500;2023-05-07T20:39:01;25.42;;;18.65;;
48627;SDS011;34424;52.234;6.500;2023-05-07T20:44:04;26.10;;;19.42;;
48627;SDS011;34424;52.234;6.500;2023-05-07T20:49:07;26.80;;;17.13;;
48627;SDS011;34424;52.234;6.500;2023-05-07T20:54:11;26.92;;;19.38;;
48627;SDS011;34424;52.234;6.500;2023-05-07T20:59:14;23.95;;;17.60;;
48627;SDS011;34424;52.234;6.500;2023-05-07T21:04:17;25.88;;;18.58;;
48627;SDS011;34424;52.234;6.500;2023-05-07T21:09:21;23.45;;;18.17;;
48627;SDS011;34424;52.234;6.500;2023-05-07T21:14:24;23.67;;;17.45;;
48627;SDS011;34424;52.234;6.500;2023-05-07T21:19:27;20.17;;;16.13;;
48627;SDS011;34424;52.234;6.500;2023-05-07T21:24:31;26.48;;;17.02;;
48627;SDS011;34424;52.234;6.500;2023-05-07T21:29:33;20.00;;;15.90;;
48627;SDS011;34424;52.234;6.500;2023-05-07T21:34:36;20.02;;;15.45;;
48627;SDS011;34424;52.234;6.500;2023-05-07T21:39:41;21.65;;;16.13;;
48627;SDS011;34424;52.234;6.500;2023-05-07T21:44:44;22.42;;;15.13;;
48627;SDS011;34424;52.234;6.500;2023-05-07T21:49:47;21.25;;;16.02;;
48627;SDS011;34424;52.234;6.500;2023-05-07T21:54:51;21.88;;;15.90;;
48627;SDS011;34424;52.234;6.500;2023-05-07T21:59:54;20.95;;;15.70;;
48627;SDS011;34424;52.234;6.500;2023-05-07T22:04:57;21.02;;;14.98;;
48627;SDS011;34424;52.234;6.500;2023-05-07T22:10:01;20.13;;;16.33;;
48627;SDS011;34424;52.234;6.500;2023-05-07T22:15:04;22.25;;;16.10;;
48627;SDS011;34424;52.234;6.500;2023-05-07T22:20:08;24.08;;;18.25;;
48627;SDS011;34424;52.234;6.500;2023-05-07T22:25:13;24.60;;;18.40;;
48627;SDS011;34424;52.234;6.500;2023-05-07T22:30:16;20.85;;;16.42;;
48627;SDS011;34424;52.234;6.500;2023-05-07T22:35:19;23.02;;;17.08;;
48627;SDS011;34424;52.234;6.500;2023-05-07T22:40:23;23.63;;;17.55;;
48627;SDS011;34424;52.234;6.500;2023-05-07T22:45:26;23.85;;;17.33;;
48627;SDS011;34424;52.234;6.500;2023-05-07T22:50:29;24.27;;;18.30;;
48627;SDS011;34424;52.234;6.500;2023-05-07T22:55:33;27.20;;;20.63;;
48627;SDS011;34424;52.234;6.500;2023-05-07T23:00:36;26.02;;;21.48;;
48627;SDS011;34424;52.234;6.500;2023-05-07T23:05:40;28.80;;;20.55;;
48627;SDS011;34424;52.234;6.500;2023-05-07T23:10:44;26.73;;;20.38;;
48627;SDS011;34424;52.234;6.500;2023-05-07T23:15:46;26.27;;;20.88;;
48627;SDS011;34424;52.234;6.500;2023-05-07T23:20:50;26.23;;;20.52;;
48627;SDS011;34424;52.234;6.500;2023-05-07T23:25:54;29.77;;;23.40;;
48627;SDS011;34424;52.234;6.500;2023-05-07T23:30:57;30.00;;;22.48;;
48627;SDS011;34424;52.234;6.500;2023-05-07T23:36:00;27.80;;;22.08;;
48627;SDS011;34424;52.234;6.500;2023-05-07T23:41:05;28.45;;;21.60;;
48627;SDS011;34424;52.234;6.500;2023-05-07T23:46:08;30.38;;;23.92;;
48627;SDS011;34424;52.234;6.500;2023-05-07T23:51:11;30.50;;;24.05;;
48627;SDS011;34424;52.234;6.500;2023-05-07T23:56:15;31.05;;;25.15;;
